Time;durP1;ratioP1;P1;durP2;ratioP2;P2;SDS_P1;SDS_P2;PMS_P1;PMS_P2;Temp;Humidity;BMP_temperature;BMP_pressure;BME280_temperature;BME280_humidity;BME280_pressure;Samples;Min_cycle;Max_cycle;Signal;HPM_P1;HPM_P2
2021/04/24 00:02:44;;;;;;;18.47;6.53;;;;;;;1.71;72.02;101256.38;3419845;84;26208;-89
2021/04/24 00:07:45;;;;;;;18.57;6.60;;;;;;;1.74;72.07;101253.05;3479641;83;98791;-89
2021/04/24 00:12:46;;;;;;;17.43;7.00;;;;;;;1.80;72.96;101243.75;3483527;83;27664;-90
2021/04/24 00:17:47;;;;;;;16.43;6.13;;;;;;;1.86;72.97;101244.69;3414810;85;98655;-91
2021/04/24 00:22:48;;;;;;;15.27;6.57;;;;;;;1.89;73.03;101236.50;3492931;83;25897;-89
2021/04/24 00:27:49;;;;;;;16.73;6.60;;;;;;;2.00;73.16;101237.37;3471317;83;98656;-90
2021/04/24 00:32:51;;;;;;;18.73;6.10;;;;;;;2.11;73.17;101233.91;3481692;83;26491;-89
2021/04/24 00:37:52;;;;;;;17.20;5.50;;;;;;;2.21;73.06;101237.24;3404760;85;98467;-88
2021/04/24 00:42:52;;;;;;;17.97;6.07;;;;;;;2.30;73.31;101235.41;3482939;83;26365;-89
2021/04/24 00:47:56;;;;;;;14.90;5.03;;;;;;;2.41;72.87;101236.03;3483449;83;98466;-90
2021/04/24 00:52:58;;;;;;;15.90;6.23;;;;;;;2.52;73.53;101234.13;3485103;83;26550;-90
2021/04/24 00:58:00;;;;;;;14.07;5.20;;;;;;;2.61;73.81;101245.91;3403745;85;98989;-90
2021/04/24 01:03:01;;;;;;;12.77;4.57;;;;;;;2.73;73.19;101225.80;3492191;83;27471;-90
2021/04/24 01:08:04;;;;;;;10.97;4.30;;;;;;;2.85;73.26;101219.84;3477757;83;98529;-90
2021/04/24 01:13:07;;;;;;;11.70;3.63;;;;;;;2.95;72.98;101222.33;3455081;84;28323;-90
2021/04/24 01:18:10;;;;;;;13.73;5.27;;;;;;;3.02;72.91;101226.23;3449124;84;100645;-90
2021/04/24 01:23:10;;;;;;;18.40;5.07;;;;;;;3.12;73.06;101226.55;3454790;84;27588;-90
2021/04/24 01:28:12;;;;;;;11.67;4.37;;;;;;;3.20;72.74;101223.89;3396740;84;98475;-90
2021/04/24 01:33:15;;;;;;;15.97;6.07;;;;;;;3.26;73.75;101234.08;3452744;84;26500;-90
2021/04/24 01:38:16;;;;;;;15.97;4.60;;;;;;;3.29;73.69;101235.62;3452493;84;98243;-89
2021/04/24 01:43:17;;;;;;;10.73;4.10;;;;;;;3.36;73.85;101233.30;3448428;84;27680;-90
2021/04/24 01:48:18;;;;;;;9.77;3.73;;;;;;;3.48;72.52;101221.83;3447561;84;98772;-89
2021/04/24 01:53:22;;;;;;;12.50;4.00;;;;;;;3.62;72.46;101222.03;3453318;84;25947;-90
2021/04/24 01:58:23;;;;;;;9.75;3.60;;;;;;;3.72;72.16;101221.73;3453698;82;98548;-89
2021/04/24 02:03:25;;;;;;;10.73;3.80;;;;;;;3.82;72.02;101220.11;3458777;84;27722;-89
2021/04/24 02:08:34;;;;;;;13.70;4.10;;;;;;;3.93;71.53;101224.75;3422143;84;98603;-89
2021/04/24 02:13:40;;;;;;;9.30;2.93;;;;;;;4.00;71.07;101218.28;3409521;85;27501;-89
2021/04/24 02:18:41;;;;;;;10.53;3.10;;;;;;;4.10;71.29;101224.24;3408079;85;98303;-89
2021/04/24 02:23:41;;;;;;;10.47;3.37;;;;;;;4.18;70.85;101217.23;3412213;85;26768;-86
2021/04/24 02:28:43;;;;;;;9.83;3.33;;;;;;;4.26;70.91;101206.93;3401433;85;98590;-87
2021/04/24 02:33:44;;;;;;;13.93;5.20;;;;;;;4.33;70.72;101200.45;3415337;85;26510;-88
2021/04/24 02:38:52;;;;;;;11.33;3.80;;;;;;;4.41;70.63;101192.84;3413737;85;98845;-88
2021/04/24 02:43:53;;;;;;;11.57;4.37;;;;;;;4.48;70.40;101185.81;3401715;85;28785;-89
2021/04/24 02:48:53;;;;;;;10.80;3.43;;;;;;;4.54;70.39;101188.63;3405513;85;98525;-89
2021/04/24 02:53:54;;;;;;;10.93;3.83;;;;;;;4.59;70.32;101191.78;3427189;85;25825;-89
2021/04/24 02:58:55;;;;;;;12.93;4.60;;;;;;;4.55;70.06;101157.55;3417551;85;98452;-89
2021/04/24 03:03:55;;;;;;;12.97;4.20;;;;;;;4.55;70.06;101157.55;3419432;85;25939;-89
2021/04/24 03:08:56;;;;;;;12.28;3.95;;;;;;;4.72;70.09;101177.19;3410365;85;98605;-88
2021/04/24 03:13:58;;;;;;;9.67;3.60;;;;;;;4.75;70.20;101174.62;3415420;85;26523;-88
2021/04/24 03:18:59;;;;;;;10.67;3.80;;;;;;;4.78;70.11;101187.62;3476314;83;98411;-90
2021/04/24 03:24:00;;;;;;;9.86;3.70;;;;;;;4.79;70.61;101189.23;3475405;83;26147;-90
2021/04/24 03:29:02;;;;;;;11.43;3.63;;;;;;;4.82;70.91;101187.23;3473125;83;98404;-89
2021/04/24 03:34:03;;;;;;;10.33;3.50;;;;;;;4.85;70.75;101187.94;3480137;83;34126;-90
2021/04/24 03:39:04;;;;;;;11.33;3.60;;;;;;;4.91;70.68;101189.97;3413005;84;98940;-90
2021/04/24 03:44:05;;;;;;;11.63;4.13;;;;;;;4.89;71.29;101179.37;3482000;83;33278;-89
2021/04/24 03:49:06;;;;;;;10.47;3.33;;;;;;;4.87;71.50;101186.27;3410501;85;98349;-90
2021/04/24 03:54:07;;;;;;;17.40;6.63;;;;;;;4.88;71.29;101183.77;3478938;83;33445;-89
2021/04/24 03:59:08;;;;;;;44.80;12.10;;;;;;;4.94;70.98;101189.30;3466947;83;98674;-89
2021/04/24 04:04:09;;;;;;;142.47;34.80;;;;;;;4.93;70.67;101188.52;3479766;83;33317;-88
2021/04/24 04:09:09;;;;;;;80.57;22.40;;;;;;;4.96;70.29;101185.14;3481185;83;98522;-89
2021/04/24 04:14:10;;;;;;;35.10;9.83;;;;;;;4.96;70.52;101184.35;3517721;82;33897;-87
2021/04/24 04:19:11;;;;;;;23.73;6.07;;;;;;;4.98;70.50;101187.00;3510686;82;98418;-88
2021/04/24 04:24:13;;;;;;;19.77;5.80;;;;;;;5.01;70.58;101187.70;3512333;82;31692;-88
2021/04/24 04:29:13;;;;;;;12.10;3.08;;;;;;;5.04;70.20;101188.99;3511924;81;98670;-88
2021/04/24 04:34:14;;;;;;;19.30;4.60;;;;;;;5.10;70.47;101187.70;3523957;82;31818;-88
2021/04/24 04:39:15;;;;;;;18.70;6.27;;;;;;;5.14;69.94;101187.30;3512025;82;98400;-88
2021/04/24 04:44:15;;;;;;;14.00;3.87;;;;;;;5.19;69.94;101186.56;3518926;82;31789;-88
2021/04/24 04:49:16;;;;;;;14.53;3.83;;;;;;;5.26;69.55;101182.80;3510154;82;98450;-87
2021/04/24 04:54:17;;;;;;;16.40;4.53;;;;;;;5.32;69.40;101180.14;3519767;82;32447;-87
2021/04/24 04:59:17;;;;;;;12.37;3.67;;;;;;;5.40;69.26;101183.41;3504942;82;98365;-88
2021/04/24 05:04:18;;;;;;;11.83;3.00;;;;;;;5.49;69.15;101197.03;3445308;84;35682;-88
2021/04/24 05:09:22;;;;;;;7.93;3.30;;;;;;;5.56;69.34;101202.83;3384073;84;98603;-84
2021/04/24 05:14:22;;;;;;;11.93;3.67;;;;;;;5.65;69.28;101197.58;3443032;84;35081;-89
2021/04/24 05:19:23;;;;;;;11.17;3.27;;;;;;;5.76;69.48;101202.11;3500805;82;98442;-88
2021/04/24 05:24:25;;;;;;;10.70;2.87;;;;;;;5.84;69.46;101202.11;3463974;84;35041;-88
2021/04/24 05:29:26;;;;;;;12.23;3.60;;;;;;;5.95;69.49;101203.36;3449341;84;98348;-88
2021/04/24 05:34:26;;;;;;;12.70;3.33;;;;;;;6.08;69.33;101198.81;3445130;84;35037;-90
2021/04/24 05:39:27;;;;;;;10.07;3.17;;;;;;;6.34;69.41;101204.97;3436082;83;98310;-89
2021/04/24 05:44:28;;;;;;;14.77;4.13;;;;;;;6.64;68.40;101202.44;3437846;84;35028;-90
2021/04/24 05:49:31;;;;;;;13.00;3.70;;;;;;;7.02;68.94;101193.55;3418746;84;98352;-88
2021/04/24 05:54:32;;;;;;;16.05;3.90;;;;;;;7.59;68.29;101188.99;3395663;85;35515;-88
2021/04/24 05:59:32;;;;;;;9.63;3.72;;;;;;;7.94;67.30;101199.78;3382933;85;98548;-88
2021/04/24 06:04:33;;;;;;;11.47;3.73;;;;;;;8.35;67.08;101199.63;3387828;85;36315;-88
2021/04/24 06:09:35;;;;;;;7.80;3.20;;;;;;;8.67;66.99;101198.09;3386231;85;98432;-87
2021/04/24 06:14:35;;;;;;;8.43;3.27;;;;;;;8.83;65.20;101192.72;3380161;85;35029;-88
2021/04/24 06:19:36;;;;;;;13.55;3.87;;;;;;;8.84;64.78;101197.84;3372433;86;98658;-89
2021/04/24 06:24:37;;;;;;;9.80;3.30;;;;;;;8.93;64.06;101196.33;3393812;85;26117;-87
2021/04/24 06:29:37;;;;;;;11.80;3.33;;;;;;;8.95;62.79;101214.05;3380290;85;98221;-88
2021/04/24 06:34:38;;;;;;;9.80;3.60;;;;;;;8.97;63.15;101210.41;3391844;85;32726;-87
2021/04/24 06:39:39;;;;;;;10.17;3.40;;;;;;;9.01;62.98;101206.39;3497050;83;98222;-89
2021/04/24 06:44:39;;;;;;;12.23;3.80;;;;;;;9.06;63.12;101207.52;3489996;83;32752;-88
2021/04/24 06:49:40;;;;;;;11.50;3.67;;;;;;;9.09;62.79;101206.80;3419542;84;98065;-87
2021/04/24 06:54:41;;;;;;;12.20;3.95;;;;;;;9.09;62.31;101199.94;3421412;84;32697;-88
2021/04/24 06:59:43;;;;;;;11.50;3.43;;;;;;;9.10;62.37;101208.43;3424254;84;98465;-88
2021/04/24 07:04:45;;;;;;;13.57;4.40;;;;;;;9.18;62.96;101207.48;3415528;84;27748;-85
2021/04/24 07:09:46;;;;;;;9.80;4.00;;;;;;;9.31;62.40;101209.83;3420086;84;98381;-88
2021/04/24 07:14:46;;;;;;;9.17;3.50;;;;;;;9.27;62.47;101208.92;3458643;84;26431;-87
2021/04/24 07:19:47;;;;;;;9.37;3.87;;;;;;;9.34;62.77;101202.27;3441774;84;98316;-86
2021/04/24 07:24:48;;;;;;;11.70;3.80;;;;;;;9.43;62.23;101209.77;3415818;84;26450;-87
2021/04/24 07:29:49;;;;;;;11.20;4.07;;;;;;;9.34;62.21;101210.52;3392619;84;98352;-86
2021/04/24 07:34:49;;;;;;;9.50;4.27;;;;;;;9.34;62.51;101209.14;3457496;84;26284;-85
2021/04/24 07:39:50;;;;;;;10.35;4.00;;;;;;;9.34;62.45;101209.70;3428475;84;98462;-84
2021/04/24 07:44:51;;;;;;;15.13;4.60;;;;;;;9.35;62.39;101215.42;3391085;84;33328;-84
2021/04/24 07:49:55;;;;;;;13.83;4.57;;;;;;;9.43;62.84;101222.73;3384751;84;98385;-84
2021/04/24 07:54:55;;;;;;;11.80;3.33;;;;;;;9.45;63.04;101223.98;3457712;84;33336;-85
2021/04/24 07:59:56;;;;;;;13.30;3.83;;;;;;;9.34;62.67;101231.13;3447646;81;98368;-87
2021/04/24 08:04:57;;;;;;;12.63;3.87;;;;;;;9.35;62.82;101232.72;3453027;84;33338;-85
2021/04/24 08:09:58;;;;;;;9.73;4.07;;;;;;;9.28;63.00;101234.45;3439528;83;98369;-85
2021/04/24 08:14:59;;;;;;;10.60;3.73;;;;;;;9.26;63.79;101234.02;3378397;84;33841;-87
2021/04/24 08:20:00;;;;;;;11.50;4.77;;;;;;;9.28;63.93;101228.96;3367203;85;98630;-87
2021/04/24 08:25:04;;;;;;;14.17;4.13;;;;;;;9.32;64.24;101231.25;3371583;86;33778;-85
2021/04/24 08:30:08;;;;;;;12.37;3.97;;;;;;;9.33;64.19;101229.50;3448605;84;98024;-86
2021/04/24 08:35:10;;;;;;;9.77;4.40;;;;;;;9.31;64.04;101229.06;3463739;84;33286;-86
2021/04/24 08:40:14;;;;;;;12.10;4.80;;;;;;;9.37;64.13;101233.75;3456587;82;98196;-87
2021/04/24 08:45:17;;;;;;;13.27;4.70;;;;;;;9.45;64.02;101229.47;3459477;84;33542;-87
2021/04/24 08:50:26;;;;;;;8.80;4.23;;;;;;;9.54;63.99;101227.36;3449486;84;98273;-88
2021/04/24 08:55:31;;;;;;;11.03;4.27;;;;;;;9.74;63.83;101219.47;3454525;84;33829;-86
2021/04/24 09:00:37;;;;;;;18.90;6.90;;;;;;;9.96;63.39;101220.26;3456620;84;98551;-87
2021/04/24 09:05:39;;;;;;;16.00;5.13;;;;;;;10.31;62.63;101218.42;3461579;84;33187;-88
2021/04/24 09:10:44;;;;;;;18.13;6.27;;;;;;;10.52;61.33;101215.41;3364046;86;98716;-86
2021/04/24 09:15:47;;;;;;;12.40;5.57;;;;;;;10.81;61.15;101212.14;3527020;82;25880;-88
2021/04/24 09:21:00;;;;;;;15.38;5.03;;;;;;;11.20;60.98;101206.89;3507652;82;98359;-87
2021/04/24 09:26:09;;;;;;;15.83;5.50;;;;;;;11.49;59.35;101215.38;3439495;84;98941;-87
2021/04/24 09:31:21;;;;;;;11.87;4.63;;;;;;;11.55;58.72;101213.14;3445713;84;33380;-86
2021/04/24 09:36:24;;;;;;;16.57;5.78;;;;;;;11.62;58.83;101211.31;3389323;85;98824;-85
2021/04/24 09:41:33;;;;;;;11.03;3.90;;;;;;;11.68;58.56;101214.02;3388938;85;25845;-91
2021/04/24 09:46:49;;;;;;;14.65;4.20;;;;;;;11.67;58.51;101205.50;3438464;84;98814;-91
2021/04/24 09:51:53;;;;;;;8.67;3.97;;;;;;;11.52;58.33;101212.47;3452101;84;33840;-88
2021/04/24 09:57:04;;;;;;;13.37;4.37;;;;;;;11.28;57.86;101211.41;3448981;84;98327;-90
2021/04/24 10:02:07;;;;;;;10.10;4.17;;;;;;;11.17;59.27;101216.67;3418306;85;33762;-89
2021/04/24 10:07:08;;;;;;;12.27;4.60;;;;;;;11.02;60.49;101201.00;3409245;85;98407;-89
2021/04/24 10:12:11;;;;;;;11.68;4.58;;;;;;;11.00;60.65;101184.05;3404341;85;33444;-89
2021/04/24 10:17:18;;;;;;;12.30;4.87;;;;;;;11.16;61.54;101182.59;3452063;83;98569;-89
2021/04/24 10:22:23;;;;;;;12.90;6.20;;;;;;;11.21;61.07;101176.80;3398855;85;33361;-88
2021/04/24 10:27:24;;;;;;;11.57;4.50;;;;;;;11.20;61.75;101188.98;3388953;85;98877;-88
2021/04/24 10:32:25;;;;;;;11.47;4.40;;;;;;;11.12;59.73;101169.34;3424488;85;33726;-89
2021/04/24 10:37:26;;;;;;;15.23;4.93;;;;;;;11.06;60.68;101180.44;3443838;83;98827;-89
2021/04/24 10:42:29;;;;;;;11.90;4.60;;;;;;;11.09;60.28;101172.81;3399257;85;33367;-88
2021/04/24 10:47:44;;;;;;;11.80;3.90;;;;;;;11.19;59.72;101173.62;3439512;84;98779;-88
2021/04/24 10:52:46;;;;;;;15.50;5.13;;;;;;;11.58;60.21;101160.81;3414585;85;33467;-88
2021/04/24 10:57:59;;;;;;;13.18;4.28;;;;;;;11.92;58.72;101154.36;3412748;85;98919;-87
2021/04/24 11:03:01;;;;;;;12.93;5.10;;;;;;;12.19;56.44;101160.70;3409135;85;33781;-85
2021/04/24 11:08:24;;;;;;;11.27;4.27;;;;;;;12.15;55.87;101153.75;3390034;85;98891;-86
2021/04/24 11:13:28;;;;;;;10.17;4.37;;;;;;;12.26;57.20;101152.56;3399087;85;33309;-89
2021/04/24 11:18:31;;;;;;;11.47;4.50;;;;;;;12.46;55.49;101154.03;3437468;84;98971;-87
2021/04/24 11:23:40;;;;;;;10.20;4.40;;;;;;;12.50;55.32;101143.27;3403976;85;33868;-87
2021/04/24 11:29:03;;;;;;;9.27;3.53;;;;;;;12.53;54.12;101141.73;3397840;85;98895;-90
2021/04/24 11:34:26;;;;;;;8.57;3.63;;;;;;;12.79;53.08;101132.02;3402271;85;33831;-89
2021/04/24 11:39:27;;;;;;;8.23;3.80;;;;;;;12.90;53.01;101145.37;3402129;85;98368;-87
2021/04/24 11:44:36;;;;;;;8.85;3.98;;;;;;;13.03;52.58;101142.64;3394191;85;33355;-86
2021/04/24 11:49:50;;;;;;;10.38;3.92;;;;;;;13.09;52.03;101142.52;3408654;85;98660;-87
2021/04/24 11:54:52;;;;;;;9.10;3.47;;;;;;;13.10;52.29;101149.63;3407958;85;26102;-91
2021/04/24 11:59:53;;;;;;;7.90;2.83;;;;;;;13.18;52.13;101150.72;3396968;85;98178;-94
2021/04/24 12:05:11;;;;;;;10.57;4.57;;;;;;;13.26;49.75;101153.79;3502495;83;33340;-92
2021/04/24 12:10:12;;;;;;;8.77;3.40;;;;;;;13.35;50.56;101150.73;3501609;83;98893;-92
2021/04/24 12:15:24;;;;;;;9.00;3.60;;;;;;;14.23;48.96;101143.48;3494206;83;33747;-91
2021/04/24 12:20:36;;;;;;;7.70;3.40;;;;;;;14.23;48.96;101143.48;3475358;83;98824;-90
2021/04/24 12:25:40;;;;;;;13.50;4.03;;;;;;;14.32;49.55;101161.14;3472535;83;33330;-87
2021/04/24 12:30:45;;;;;;;9.67;3.97;;;;;;;14.32;49.55;101161.14;3475242;83;98387;-86
2021/04/24 12:35:52;;;;;;;9.93;4.87;;;;;;;14.32;50.70;101156.41;3481737;83;33407;-87
2021/04/24 12:41:03;;;;;;;9.23;4.17;;;;;;;14.68;51.54;101150.52;3409903;85;33872;-88
2021/04/24 12:46:08;;;;;;;11.77;4.60;;;;;;;14.96;51.05;101149.28;3439753;83;103146;-85
2021/04/24 12:51:17;;;;;;;12.53;5.13;;;;;;;15.05;50.40;101148.34;3486989;83;33968;-85
2021/04/24 12:56:26;;;;;;;11.10;4.00;;;;;;;15.18;50.59;101151.77;3477320;83;99110;-89
2021/04/24 13:01:27;;;;;;;9.20;3.83;;;;;;;15.17;49.87;101155.73;3480665;83;31506;-89
2021/04/24 13:06:31;;;;;;;13.30;6.22;;;;;;;14.93;48.55;101155.01;3406927;84;98611;-90
2021/04/24 13:11:45;;;;;;;11.93;5.03;;;;;;;14.82;48.71;101150.00;3481614;83;25914;-90
2021/04/24 13:16:46;;;;;;;14.60;7.35;;;;;;;14.86;48.29;101143.09;3448928;83;99257;-88
2021/04/24 13:21:52;;;;;;;10.40;4.70;;;;;;;14.78;47.72;101146.41;3443070;84;33938;-87
2021/04/24 13:26:57;;;;;;;9.07;3.37;;;;;;;14.51;47.13;101143.67;3425028;84;98983;-88
2021/04/24 13:32:03;;;;;;;15.50;6.53;;;;;;;14.11;44.40;101142.37;3441065;84;26086;-88
2021/04/24 13:37:12;;;;;;;;;;;;;;;13.89;47.14;101137.83;3443017;82;98486;-88
2021/04/24 13:42:24;;;;;;;11.87;5.30;;;;;;;13.57;47.15;101129.81;3443086;84;26577;-86
2021/04/24 13:47:26;;;;;;;12.53;5.10;;;;;;;13.57;47.15;101129.81;3437506;84;98949;-90
2021/04/24 13:52:27;;;;;;;10.37;4.80;;;;;;;13.65;48.27;101138.41;3446520;84;33388;-88
2021/04/24 13:57:29;;;;;;;15.97;8.67;;;;;;;13.64;47.24;101141.55;3442388;84;98787;-91
2021/04/24 14:02:29;;;;;;;14.57;8.17;;;;;;;13.72;48.21;101130.17;3448076;84;34250;-95
2021/04/24 14:07:30;;;;;;;12.23;6.93;;;;;;;13.79;47.00;101132.22;3441310;83;98907;-89
2021/04/24 14:12:31;;;;;;;12.77;6.13;;;;;;;13.93;47.33;101127.59;3446169;84;34460;-89
2021/04/24 14:17:32;;;;;;;11.88;6.33;;;;;;;14.22;48.17;101127.27;3479052;82;98540;-89
2021/04/24 14:22:33;;;;;;;14.27;6.87;;;;;;;14.40;47.74;101130.95;3487037;83;33479;-89
2021/04/24 14:27:37;;;;;;;16.03;7.57;;;;;;;14.27;46.64;101129.08;3418346;85;98966;-90
2021/04/24 14:32:38;;;;;;;14.53;6.50;;;;;;;14.16;46.68;101129.55;3492648;83;33350;-88
2021/04/24 14:37:41;;;;;;;11.87;5.10;;;;;;;14.06;46.61;101121.19;3480181;83;99216;-89
2021/04/24 14:42:41;;;;;;;12.70;6.13;;;;;;;13.91;46.91;101121.63;3484048;83;33392;-89
2021/04/24 14:47:43;;;;;;;14.70;6.07;;;;;;;13.82;45.50;101113.45;3413343;84;98894;-86
2021/04/24 14:52:45;;;;;;;10.17;5.00;;;;;;;13.61;45.81;101111.30;3483476;83;33366;-90
2021/04/24 14:57:46;;;;;;;12.57;5.83;;;;;;;13.51;45.88;101110.59;3478053;83;99209;-91
2021/04/24 15:02:49;;;;;;;16.80;7.97;;;;;;;13.40;46.60;101106.15;3482863;83;33421;-88
2021/04/24 15:07:50;;;;;;;14.13;6.87;;;;;;;13.45;46.03;101102.44;3475839;83;98864;-85
2021/04/24 15:12:51;;;;;;;10.70;6.10;;;;;;;13.50;45.18;101100.72;3483096;83;33977;-90
2021/04/24 15:17:54;;;;;;;16.10;7.33;;;;;;;13.45;45.61;101092.77;3471297;83;98960;-87
2021/04/24 15:22:55;;;;;;;17.87;9.03;;;;;;;13.38;45.25;101096.04;3483669;83;33269;-86
2021/04/24 15:27:58;;;;;;;17.07;9.10;;;;;;;13.32;45.13;101098.94;3472525;83;101327;-86
2021/04/24 15:33:00;;;;;;;12.67;5.30;;;;;;;13.07;45.69;101064.13;3427130;84;33877;-86
2021/04/24 15:38:01;;;;;;;10.40;4.70;;;;;;;13.05;45.84;101094.11;3475529;83;98969;-87
2021/04/24 15:43:03;;;;;;;10.57;4.17;;;;;;;12.83;45.35;101091.42;3421503;85;33982;-86
2021/04/24 15:48:04;;;;;;;9.23;4.03;;;;;;;12.77;46.46;101097.08;3413906;85;98995;-89
2021/04/24 15:53:07;;;;;;;8.53;3.20;;;;;;;12.75;46.37;101099.43;3483165;83;33378;-87
2021/04/24 15:58:09;;;;;;;10.58;3.92;;;;;;;12.66;45.48;101101.67;3477265;82;98948;-87
2021/04/24 16:03:10;;;;;;;8.53;3.60;;;;;;;12.54;45.64;101088.09;3477783;83;34213;-88
2021/04/24 16:08:10;;;;;;;9.25;3.87;;;;;;;12.54;45.64;101088.09;3469249;81;98662;-86
2021/04/24 16:13:13;;;;;;;10.77;4.13;;;;;;;12.47;45.62;101094.31;3414408;85;33389;-87
2021/04/24 16:18:13;;;;;;;10.57;3.43;;;;;;;12.40;45.55;101100.31;3472800;83;98854;-91
2021/04/24 16:23:14;;;;;;;17.90;7.87;;;;;;;12.26;44.93;101080.20;3470708;83;33386;-90
2021/04/24 16:28:15;;;;;;;14.20;6.40;;;;;;;12.04;45.60;101055.44;3394103;85;98735;-86
2021/04/24 16:33:16;;;;;;;125.47;18.33;;;;;;;12.04;45.60;101055.44;3477015;83;33328;-92
2021/04/24 16:38:17;;;;;;;9.40;3.80;;;;;;;11.95;45.05;101072.23;3461152;83;99337;-89
2021/04/24 16:43:18;;;;;;;13.37;3.50;;;;;;;11.72;44.96;101059.06;3484811;83;34165;-90
2021/04/24 16:48:18;;;;;;;13.03;4.08;;;;;;;11.63;45.00;101066.80;3470063;82;99244;-90
2021/04/24 16:53:20;;;;;;;14.83;4.20;;;;;;;11.43;43.77;101067.18;3474331;83;31796;-91
2021/04/24 16:58:20;;;;;;;36.67;10.50;;;;;;;11.17;44.27;101066.52;3468454;83;99094;-90
2021/04/24 17:03:21;;;;;;;9.77;3.30;;;;;;;10.95;44.58;101071.41;3401506;85;31787;-90
2021/04/24 17:08:22;;;;;;;8.40;2.97;;;;;;;10.80;44.99;101071.50;3400684;84;98865;-87
2021/04/24 17:13:23;;;;;;;8.93;2.60;;;;;;;10.69;44.98;101073.23;3390739;86;31732;-91
2021/04/24 17:18:24;;;;;;;10.33;3.97;;;;;;;10.58;46.67;101077.13;3378191;85;98309;-90
2021/04/24 17:23:24;;;;;;;16.63;7.23;;;;;;;10.59;48.18;101068.30;3439330;84;31793;-91
2021/04/24 17:28:25;;;;;;;10.85;4.53;;;;;;;10.53;46.92;101079.38;3431126;84;98992;-91
2021/04/24 17:33:31;;;;;;;34.17;10.87;;;;;;;10.35;46.84;101081.73;3444663;84;36455;-92
2021/04/24 17:38:28;;;;;;;12.50;4.33;;;;;;;10.32;48.10;101076.97;3375573;85;99034;-92
2021/04/24 17:43:31;;;;;;;10.03;3.80;;;;;;;10.26;48.53;101081.13;3437369;84;31341;-91
2021/04/24 17:48:32;;;;;;;8.27;3.37;;;;;;;10.09;46.86;101084.27;3381419;85;98514;-87
2021/04/24 17:53:33;;;;;;;10.63;4.17;;;;;;;10.09;46.86;101084.27;3436247;84;25949;-87
2021/04/24 17:58:36;;;;;;;7.20;3.10;;;;;;;10.04;46.37;101090.05;3390279;85;98841;-87
2021/04/24 18:03:36;;;;;;;6.50;2.97;;;;;;;9.97;46.69;101095.95;3440184;84;26086;-87
2021/04/24 18:08:37;;;;;;;7.83;3.23;;;;;;;9.85;46.03;101098.21;3397956;85;98259;-88
2021/04/24 18:13:39;;;;;;;5.97;2.80;;;;;;;9.65;46.92;101089.65;3374413;85;35115;-87
2021/04/24 18:18:39;;;;;;;8.63;3.03;;;;;;;9.60;46.75;101104.25;3380413;85;98383;-85
2021/04/24 18:23:41;;;;;;;7.87;2.70;;;;;;;9.42;46.01;101107.09;3462540;84;35583;-86
2021/04/24 18:28:41;;;;;;;6.17;2.17;;;;;;;9.28;46.34;101111.63;3368229;86;98356;-86
2021/04/24 18:33:42;;;;;;;11.83;5.07;;;;;;;9.13;46.51;101115.16;3458708;84;35549;-87
2021/04/24 18:38:43;;;;;;;13.33;3.33;;;;;;;9.00;46.67;101127.92;3451704;84;98529;-86
2021/04/24 18:43:43;;;;;;;4.53;2.02;;;;;;;8.81;46.91;101128.55;3386899;86;35055;-88
2021/04/24 18:48:46;;;;;;;6.40;2.60;;;;;;;8.64;47.04;101135.70;3455112;84;98230;-86
2021/04/24 18:53:47;;;;;;;7.63;3.33;;;;;;;8.49;47.80;101143.83;3462351;84;26083;-88
2021/04/24 18:58:48;;;;;;;12.50;4.30;;;;;;;8.31;47.72;101146.04;3376021;86;98033;-89
2021/04/24 19:03:48;;;;;;;11.83;4.70;;;;;;;8.13;48.09;101147.95;3445759;84;32714;-88
2021/04/24 19:08:49;;;;;;;12.77;5.40;;;;;;;7.96;47.94;101144.08;3453581;84;98560;-89
2021/04/24 19:13:50;;;;;;;14.70;6.77;;;;;;;7.62;49.09;101141.73;3463379;84;33317;-88
2021/04/24 19:18:51;;;;;;;16.30;8.30;;;;;;;7.62;49.09;101141.73;3470615;83;98311;-89
2021/04/24 19:23:51;;;;;;;19.60;8.73;;;;;;;7.43;49.60;101145.58;3483125;83;32738;-88
2021/04/24 19:28:56;;;;;;;21.53;9.60;;;;;;;7.03;51.15;101150.80;3401913;85;98565;-88
2021/04/24 19:33:55;;;;;;;21.13;9.90;;;;;;;7.03;51.15;101150.80;3486903;83;27187;-88
2021/04/24 19:38:58;;;;;;;22.15;10.28;;;;;;;6.85;51.86;101156.74;3479506;82;98416;-88
2021/04/24 19:44:00;;;;;;;22.53;9.03;;;;;;;6.66;52.56;101153.69;3479313;84;28882;-88
2021/04/24 19:49:01;;;;;;;18.17;8.90;;;;;;;6.45;52.95;101153.69;3482744;83;98177;-85
2021/04/24 19:54:03;;;;;;;23.17;11.13;;;;;;;6.27;53.53;101157.62;3486677;83;25906;-86
2021/04/24 19:59:04;;;;;;;20.93;12.03;;;;;;;6.13;54.02;101154.35;3478815;82;98730;-88
2021/04/24 20:04:07;;;;;;;21.93;10.70;;;;;;;5.98;53.93;101155.45;3421102;85;26112;-86
2021/04/24 20:09:07;;;;;;;19.77;9.67;;;;;;;5.83;54.38;101159.55;3475488;83;98811;-86
2021/04/24 20:14:08;;;;;;;20.97;10.30;;;;;;;5.67;54.68;101150.83;3419725;85;26380;-86
2021/04/24 20:19:09;;;;;;;73.37;30.80;;;;;;;5.54;55.92;101151.81;3476360;83;98716;-85
2021/04/24 20:24:11;;;;;;;69.70;30.00;;;;;;;5.40;56.05;101156.69;3483198;83;26056;-88
2021/04/24 20:29:11;;;;;;;47.27;22.70;;;;;;;5.29;56.35;101157.58;3477732;83;98620;-89
2021/04/24 20:34:12;;;;;;;22.20;9.73;;;;;;;5.17;57.04;101157.99;3480505;83;26682;-87
2021/04/24 20:39:13;;;;;;;14.27;4.53;;;;;;;5.06;57.06;101158.09;3474389;83;98516;-86
2021/04/24 20:44:14;;;;;;;12.73;4.60;;;;;;;5.04;56.07;101161.16;3481203;83;26062;-86
2021/04/24 20:49:14;;;;;;;13.17;5.47;;;;;;;5.08;56.20;101164.83;3471048;83;98405;-88
2021/04/24 20:54:15;;;;;;;15.03;5.77;;;;;;;5.12;55.52;101163.64;3485107;83;33854;-87
2021/04/24 20:59:17;;;;;;;15.53;5.73;;;;;;;5.17;55.56;101164.81;3474501;83;98399;-86
2021/04/24 21:04:17;;;;;;;13.95;4.87;;;;;;;5.21;55.86;101173.42;3485118;83;33723;-85
2021/04/24 21:09:18;;;;;;;15.90;5.17;;;;;;;5.25;55.76;101168.89;3475727;83;98473;-85
2021/04/24 21:14:19;;;;;;;13.20;5.90;;;;;;;5.28;55.72;101172.91;3477600;83;33362;-87
2021/04/24 21:19:22;;;;;;;14.23;5.20;;;;;;;5.30;55.59;101166.00;3471613;83;98515;-86
2021/04/24 21:24:22;;;;;;;16.23;6.00;;;;;;;5.33;55.94;101179.56;3483168;83;33328;-87
2021/04/24 21:29:24;;;;;;;13.83;4.93;;;;;;;5.34;55.74;101176.52;3476211;83;98226;-89
2021/04/24 21:34:28;;;;;;;11.90;4.57;;;;;;;5.35;55.82;101168.56;3474723;83;33436;-86
2021/04/24 21:39:29;;;;;;;12.77;4.43;;;;;;;5.35;55.81;101170.51;3411448;84;98238;-87
2021/04/24 21:44:30;;;;;;;11.93;4.43;;;;;;;5.33;55.76;101167.28;3481783;83;33317;-87
2021/04/24 21:49:31;;;;;;;11.63;4.00;;;;;;;5.33;55.76;101167.28;3468794;83;98578;-88
2021/04/24 21:54:34;;;;;;;14.87;4.63;;;;;;;5.30;55.86;101166.58;3478328;83;33847;-87
2021/04/24 21:59:35;;;;;;;12.47;4.30;;;;;;;5.19;55.86;101151.67;3476290;83;98482;-88
2021/04/24 22:04:36;;;;;;;10.37;3.43;;;;;;;5.22;56.15;101164.09;3482441;83;33864;-88
2021/04/24 22:09:36;;;;;;;10.93;3.90;;;;;;;5.15;55.85;101163.80;3412993;85;98452;-87
2021/04/24 22:14:37;;;;;;;8.50;2.83;;;;;;;5.12;55.17;101158.19;3412329;85;33349;-86
2021/04/24 22:19:38;;;;;;;6.40;2.70;;;;;;;5.06;55.40;101158.91;3481464;83;97970;-85
2021/04/24 22:24:39;;;;;;;9.47;2.57;;;;;;;5.05;55.12;101157.85;3399746;85;32005;-86
2021/04/24 22:29:39;;;;;;;5.80;1.80;;;;;;;5.00;54.89;101156.65;3406838;85;98381;-86
2021/04/24 22:34:42;;;;;;;8.70;2.40;;;;;;;4.97;55.49;101156.73;3485088;83;32475;-86
2021/04/24 22:39:44;;;;;;;6.55;1.80;;;;;;;4.93;55.38;101157.70;3481718;82;98263;-88
2021/04/24 22:44:45;;;;;;;6.60;2.00;;;;;;;4.87;55.25;101156.27;3414764;85;32001;-88
2021/04/24 22:49:45;;;;;;;4.17;1.50;;;;;;;4.83;54.98;101149.84;3406202;85;98090;-88
2021/04/24 22:54:46;;;;;;;6.60;2.57;;;;;;;4.79;54.68;101152.96;3481880;83;31853;-87
2021/04/24 22:59:47;;;;;;;6.50;2.10;;;;;;;4.77;55.30;101147.85;3399387;85;98268;-88
2021/04/24 23:04:47;;;;;;;5.80;1.80;;;;;;;4.73;55.66;101148.24;3412264;85;31819;-87
2021/04/24 23:09:48;;;;;;;5.53;1.90;;;;;;;4.68;55.14;101147.03;3415118;83;98139;-87
2021/04/24 23:14:49;;;;;;;5.80;1.87;;;;;;;4.61;54.92;101135.81;3409992;85;29400;-87
2021/04/24 23:19:49;;;;;;;7.40;1.90;;;;;;;4.54;56.50;101138.20;3491963;81;98166;-88
2021/04/24 23:24:51;;;;;;;6.63;2.40;;;;;;;4.48;56.54;101142.20;3450197;84;35616;-88